sensor_id;sensor_type;location;lat;lon;timestamp;pressure;altitude;pressure_sealevel;temperature;humidity
72061;BME280;59925;52.136;5.420;2022-11-04T00:02:02;100180.34;;;10.24;93.97
72061;BME280;59925;52.136;5.420;2022-11-04T00:04:29;100185.97;;;10.22;94.07
72061;BME280;59925;52.136;5.420;2022-11-04T00:06:56;100198.84;;;10.20;94.22
72061;BME280;59925;52.136;5.420;2022-11-04T00:09:28;100199.44;;;10.17;94.00
72061;BME280;59925;52.136;5.420;2022-11-04T00:11:56;100197.84;;;10.16;94.33
72061;BME280;59925;52.136;5.420;2022-11-04T00:14:41;100205.56;;;10.18;94.27
72061;BME280;59925;52.136;5.420;2022-11-04T00:17:11;100209.56;;;10.20;93.88
72061;BME280;59925;52.136;5.420;2022-11-04T00:19:50;100216.50;;;10.21;94.18
72061;BME280;59925;52.136;5.420;2022-11-04T00:22:35;100214.66;;;10.22;94.31
72061;BME280;59925;52.136;5.420;2022-11-04T00:25:21;100210.94;;;10.18;94.01
72061;BME280;59925;52.136;5.420;2022-11-04T00:28:14;100212.81;;;10.17;94.04
72061;BME280;59925;52.136;5.420;2022-11-04T00:31:08;100209.88;;;10.13;94.16
72061;BME280;59925;52.136;5.420;2022-11-04T00:33:55;100220.09;;;10.11;94.28
72061;BME280;59925;52.136;5.420;2022-11-04T00:36:23;100218.22;;;10.12;94.02
72061;BME280;59925;52.136;5.420;2022-11-04T00:38:50;100239.63;;;10.12;93.93
72061;BME280;59925;52.136;5.420;2022-11-04T00:41:16;100238.03;;;10.11;94.43
72061;BME280;59925;52.136;5.420;2022-11-04T00:43:55;100236.44;;;10.10;93.94
72061;BME280;59925;52.136;5.420;2022-11-04T00:46:21;100245.28;;;10.10;93.98
72061;BME280;59925;52.136;5.420;2022-11-04T00:48:48;100251.44;;;10.11;94.11
72061;BME280;59925;52.136;5.420;2022-11-04T00:51:15;100244.75;;;10.08;93.97
72061;BME280;59925;52.136;5.420;2022-11-04T00:53:41;100247.22;;;10.05;94.36
72061;BME280;59925;52.136;5.420;2022-11-04T00:56:08;100242.63;;;10.05;94.36
72061;BME280;59925;52.136;5.420;2022-11-04T00:58:35;100243.72;;;10.04;93.92
72061;BME280;59925;52.136;5.420;2022-11-04T01:01:09;100250.44;;;10.02;94.00
72061;BME280;59925;52.136;5.420;2022-11-04T01:03:36;100255.78;;;10.02;94.20
72061;BME280;59925;52.136;5.420;2022-11-04T01:06:04;100267.28;;;10.02;94.21
72061;BME280;59925;52.136;5.420;2022-11-04T01:08:30;100269.97;;;10.02;94.02
72061;BME280;59925;52.136;5.420;2022-11-04T01:11:00;100269.72;;;10.04;94.36
72061;BME280;59925;52.136;5.420;2022-11-04T01:13:27;100272.38;;;10.04;94.15
72061;BME280;59925;52.136;5.420;2022-11-04T01:15:54;100282.81;;;10.05;94.37
72061;BME280;59925;52.136;5.420;2022-11-04T01:18:22;100296.44;;;10.09;94.00
72061;BME280;59925;52.136;5.420;2022-11-04T01:20:48;100291.09;;;10.09;94.08
72061;BME280;59925;52.136;5.420;2022-11-04T01:23:15;100302.09;;;10.07;94.03
72061;BME280;59925;52.136;5.420;2022-11-04T01:25:41;100299.66;;;10.06;93.93
72061;BME280;59925;52.136;5.420;2022-11-04T01:28:08;100310.38;;;10.06;93.76
72061;BME280;59925;52.136;5.420;2022-11-04T01:30:37;100303.44;;;10.05;94.29
72061;BME280;59925;52.136;5.420;2022-11-04T01:33:03;100305.84;;;10.06;94.02
72061;BME280;59925;52.136;5.420;2022-11-04T01:35:30;100316.56;;;10.01;93.94
72061;BME280;59925;52.136;5.420;2022-11-04T01:37:57;100321.66;;;10.03;93.98
72061;BME280;59925;52.136;5.420;2022-11-04T01:40:24;100320.84;;;10.02;94.26
72061;BME280;59925;52.136;5.420;2022-11-04T01:42:50;100330.25;;;10.00;94.36
72061;BME280;59925;52.136;5.420;2022-11-04T01:45:18;100325.22;;;9.93;94.17
72061;BME280;59925;52.136;5.420;2022-11-04T01:50:23;100343.78;;;9.79;93.60
72061;BME280;59925;52.136;5.420;2022-11-04T01:53:04;100336.03;;;9.72;93.75
72061;BME280;59925;52.136;5.420;2022-11-04T01:55:34;100339.53;;;9.68;93.76
72061;BME280;59925;52.136;5.420;2022-11-04T01:58:08;100335.81;;;9.58;93.26
72061;BME280;59925;52.136;5.420;2022-11-04T02:00:39;100334.50;;;9.56;93.33
72061;BME280;59925;52.136;5.420;2022-11-04T02:03:14;100340.41;;;9.53;93.14
72061;BME280;59925;52.136;5.420;2022-11-04T02:05:42;100338.50;;;9.53;93.18
72061;BME280;59925;52.136;5.420;2022-11-04T02:08:09;100350.31;;;9.52;92.96
72061;BME280;59925;52.136;5.420;2022-11-04T02:10:38;100347.66;;;9.52;92.89
72061;BME280;59925;52.136;5.420;2022-11-04T02:13:06;100349.50;;;9.51;92.84
72061;BME280;59925;52.136;5.420;2022-11-04T02:23:43;100361.88;;;9.37;93.07
72061;BME280;59925;52.136;5.420;2022-11-04T02:27:02;100372.59;;;9.32;93.10
72061;BME280;59925;52.136;5.420;2022-11-04T02:29:16;100384.63;;;9.29;93.14
72061;BME280;59925;52.136;5.420;2022-11-04T02:37:23;100395.59;;;9.28;93.52
72061;BME280;59925;52.136;5.420;2022-11-04T02:40:17;100399.63;;;9.25;93.60
72061;BME280;59925;52.136;5.420;2022-11-04T02:43:20;100410.03;;;9.27;93.52
72061;BME280;59925;52.136;5.420;2022-11-04T02:45:56;100409.78;;;9.23;93.05
72061;BME280;59925;52.136;5.420;2022-11-04T02:48:40;100418.34;;;9.25;93.34
72061;BME280;59925;52.136;5.420;2022-11-04T02:51:18;100421.28;;;9.24;93.40
72061;BME280;59925;52.136;5.420;2022-11-04T02:56:20;100419.41;;;9.29;93.23
72061;BME280;59925;52.136;5.420;2022-11-04T02:58:53;100426.09;;;9.32;93.47
72061;BME280;59925;52.136;5.420;2022-11-04T03:01:22;100423.69;;;9.30;92.97
72061;BME280;59925;52.136;5.420;2022-11-04T03:04:00;100423.97;;;9.29;93.05
72061;BME280;59925;52.136;5.420;2022-11-04T03:06:28;100432.25;;;9.22;93.21
72061;BME280;59925;52.136;5.420;2022-11-04T03:08:56;100430.13;;;9.24;93.12
72061;BME280;59925;52.136;5.420;2022-11-04T03:11:25;100430.66;;;9.26;93.24
72061;BME280;59925;52.136;5.420;2022-11-04T03:14:03;100435.19;;;9.26;93.32
72061;BME280;59925;52.136;5.420;2022-11-04T03:16:39;100436.78;;;9.27;93.25
72061;BME280;59925;52.136;5.420;2022-11-04T03:19:18;100441.34;;;9.21;93.14
72061;BME280;59925;52.136;5.420;2022-11-04T03:22:28;100446.44;;;9.17;92.99
72061;BME280;59925;52.136;5.420;2022-11-04T03:24:55;100445.66;;;9.12;92.81
72061;BME280;59925;52.136;5.420;2022-11-04T03:27:30;100443.50;;;9.09;92.91
72061;BME280;59925;52.136;5.420;2022-11-04T03:35:08;100460.88;;;8.96;92.58
72061;BME280;59925;52.136;5.420;2022-11-04T03:37:35;100462.75;;;8.90;92.66
72061;BME280;59925;52.136;5.420;2022-11-04T03:40:02;100462.75;;;8.90;92.89
72061;BME280;59925;52.136;5.420;2022-11-04T03:42:31;100464.09;;;8.87;93.05
72061;BME280;59925;52.136;5.420;2022-11-04T03:44:59;100462.50;;;8.86;92.69
72061;BME280;59925;52.136;5.420;2022-11-04T03:47:28;100468.91;;;8.85;92.74
72061;BME280;59925;52.136;5.420;2022-11-04T03:50:12;100481.47;;;8.80;92.78
72061;BME280;59925;52.136;5.420;2022-11-04T03:52:41;100470.25;;;8.72;92.79
72061;BME280;59925;52.136;5.420;2022-11-04T03:55:08;100478.78;;;8.69;92.90
72061;BME280;59925;52.136;5.420;2022-11-04T03:57:47;100478.78;;;8.59;92.88
72061;BME280;59925;52.136;5.420;2022-11-04T04:00:17;100477.16;;;8.53;92.85
72061;BME280;59925;52.136;5.420;2022-11-04T04:03:16;100475.75;;;8.45;92.93
72061;BME280;59925;52.136;5.420;2022-11-04T04:05:50;100487.50;;;8.44;92.93
72061;BME280;59925;52.136;5.420;2022-11-04T04:08:35;100490.69;;;8.41;92.71
72061;BME280;59925;52.136;5.420;2022-11-04T04:13:52;100492.81;;;8.28;93.03
72061;BME280;59925;52.136;5.420;2022-11-04T04:19:01;100501.06;;;8.22;92.97
72061;BME280;59925;52.136;5.420;2022-11-04T04:21:34;100498.13;;;8.18;92.86
72061;BME280;59925;52.136;5.420;2022-11-04T04:24:04;100497.56;;;8.16;93.02
72061;BME280;59925;52.136;5.420;2022-11-04T04:26:51;100500.78;;;8.13;92.93
72061;BME280;59925;52.136;5.420;2022-11-04T04:29:39;100504.25;;;8.13;92.87
72061;BME280;59925;52.136;5.420;2022-11-04T04:32:08;100499.19;;;8.17;93.35
72061;BME280;59925;52.136;5.420;2022-11-04T04:34:35;100501.34;;;8.20;93.25
72061;BME280;59925;52.136;5.420;2022-11-04T04:37:06;100505.34;;;8.23;93.29
72061;BME280;59925;52.136;5.420;2022-11-04T04:39:46;100510.13;;;8.21;93.51
72061;BME280;59925;52.136;5.420;2022-11-04T04:42:32;100520.03;;;8.20;93.09
72061;BME280;59925;52.136;5.420;2022-11-04T04:45:40;100509.63;;;8.24;93.44
72061;BME280;59925;52.136;5.420;2022-11-04T04:48:11;100513.09;;;8.24;93.57
72061;BME280;59925;52.136;5.420;2022-11-04T04:50:50;100518.16;;;8.21;93.33
72061;BME280;59925;52.136;5.420;2022-11-04T04:53:22;100516.03;;;8.18;93.37
72061;BME280;59925;52.136;5.420;2022-11-04T04:55:49;100522.94;;;8.13;93.52
72061;BME280;59925;52.136;5.420;2022-11-04T04:58:15;100527.72;;;8.11;93.54
72061;BME280;59925;52.136;5.420;2022-11-04T05:00:41;100524.78;;;8.08;93.61
72061;BME280;59925;52.136;5.420;2022-11-04T05:03:08;100528.78;;;8.05;93.71
72061;BME280;59925;52.136;5.420;2022-11-04T05:05:34;100539.47;;;8.05;93.60
72061;BME280;59925;52.136;5.420;2022-11-04T05:08:06;100534.63;;;8.02;93.49
72061;BME280;59925;52.136;5.420;2022-11-04T05:10:33;100537.25;;;7.97;93.39
72061;BME280;59925;52.136;5.420;2022-11-04T05:13:00;100539.94;;;7.92;93.69
72061;BME280;59925;52.136;5.420;2022-11-04T05:15:45;100545.50;;;7.90;93.57
72061;BME280;59925;52.136;5.420;2022-11-04T05:18:11;100548.72;;;7.87;93.78
72061;BME280;59925;52.136;5.420;2022-11-04T05:20:38;100542.00;;;7.85;93.83
72061;BME280;59925;52.136;5.420;2022-11-04T05:23:06;100547.63;;;7.83;93.97
72061;BME280;59925;52.136;5.420;2022-11-04T05:25:32;100545.19;;;7.81;93.72
72061;BME280;59925;52.136;5.420;2022-11-04T05:28:00;100549.19;;;7.79;93.84
72061;BME280;59925;52.136;5.420;2022-11-04T05:30:27;100545.72;;;7.78;93.86
72061;BME280;59925;52.136;5.420;2022-11-04T05:32:53;100552.34;;;7.76;93.88
72061;BME280;59925;52.136;5.420;2022-11-04T05:35:26;100557.69;;;7.71;93.84
72061;BME280;59925;52.136;5.420;2022-11-04T05:37:54;100568.56;;;7.64;93.21
72061;BME280;59925;52.136;5.420;2022-11-04T05:40:22;100562.19;;;7.65;93.23
72061;BME280;59925;52.136;5.420;2022-11-04T05:42:49;100562.69;;;7.62;92.89
72061;BME280;59925;52.136;5.420;2022-11-04T05:45:15;100567.19;;;7.56;92.98
72061;BME280;59925;52.136;5.420;2022-11-04T05:47:42;100562.84;;;7.50;93.14
72061;BME280;59925;52.136;5.420;2022-11-04T05:50:08;100568.44;;;7.48;93.28
72061;BME280;59925;52.136;5.420;2022-11-04T05:52:35;100563.88;;;7.44;93.08
72061;BME280;59925;52.136;5.420;2022-11-04T05:55:02;100568.38;;;7.38;93.20
72061;BME280;59925;52.136;5.420;2022-11-04T05:57:28;100573.41;;;7.34;93.30
72061;BME280;59925;52.136;5.420;2022-11-04T05:59:55;100587.00;;;7.33;93.50
72061;BME280;59925;52.136;5.420;2022-11-04T06:02:21;100581.09;;;7.31;93.62
72061;BME280;59925;52.136;5.420;2022-11-04T06:04:48;100600.03;;;7.29;93.66
72061;BME280;59925;52.136;5.420;2022-11-04T06:07:14;100602.41;;;7.26;93.75
72061;BME280;59925;52.136;5.420;2022-11-04T06:09:40;100607.75;;;7.26;93.79
72061;BME280;59925;52.136;5.420;2022-11-04T06:12:09;100609.03;;;7.23;93.93
72061;BME280;59925;52.136;5.420;2022-11-04T06:14:36;100611.69;;;7.23;93.90
72061;BME280;59925;52.136;5.420;2022-11-04T06:17:03;100614.88;;;7.20;93.89
72061;BME280;59925;52.136;5.420;2022-11-04T06:19:29;100618.84;;;7.17;93.92
72061;BME280;59925;52.136;5.420;2022-11-04T06:21:55;100625.22;;;7.16;93.85
72061;BME280;59925;52.136;5.420;2022-11-04T06:24:22;100622.81;;;7.15;93.82
72061;BME280;59925;52.136;5.420;2022-11-04T06:26:48;100619.38;;;7.14;93.78
72061;BME280;59925;52.136;5.420;2022-11-04T06:29:15;100624.38;;;7.11;93.65
72061;BME280;59925;52.136;5.420;2022-11-04T06:31:41;100632.06;;;7.07;93.81
72061;BME280;59925;52.136;5.420;2022-11-04T06:34:07;100628.28;;;7.03;93.77
72061;BME280;59925;52.136;5.420;2022-11-04T06:36:34;100629.34;;;7.02;93.84
72061;BME280;59925;52.136;5.420;2022-11-04T06:39:03;100628.00;;;6.99;93.89
72061;BME280;59925;52.136;5.420;2022-11-04T06:41:30;100630.09;;;6.97;93.99
72061;BME280;59925;52.136;5.420;2022-11-04T06:43:56;100636.00;;;6.99;94.08
72061;BME280;59925;52.136;5.420;2022-11-04T06:46:33;100638.91;;;6.98;93.98
72061;BME280;59925;52.136;5.420;2022-11-04T06:49:00;100638.09;;;6.97;94.03
72061;BME280;59925;52.136;5.420;2022-11-04T06:51:26;100639.66;;;6.93;93.94
72061;BME280;59925;52.136;5.420;2022-11-04T06:53:53;100639.09;;;6.91;94.03
72061;BME280;59925;52.136;5.420;2022-11-04T06:56:19;100635.06;;;6.88;93.68
72061;BME280;59925;52.136;5.420;2022-11-04T06:58:47;100640.66;;;6.87;94.05
72061;BME280;59925;52.136;5.420;2022-11-04T07:01:15;100646.81;;;6.87;94.21
72061;BME280;59925;52.136;5.420;2022-11-04T07:03:51;100648.66;;;6.87;94.09
72061;BME280;59925;52.136;5.420;2022-11-04T07:06:18;100656.38;;;6.88;94.12
72061;BME280;59925;52.136;5.420;2022-11-04T07:08:46;100658.00;;;6.89;94.06
72061;BME280;59925;52.136;5.420;2022-11-04T07:11:13;100659.59;;;6.90;94.19
72061;BME280;59925;52.136;5.420;2022-11-04T07:13:40;100652.44;;;6.91;94.18
72061;BME280;59925;52.136;5.420;2022-11-04T07:16:07;100654.59;;;6.94;94.38
72061;BME280;59925;52.136;5.420;2022-11-04T07:18:36;100655.97;;;6.97;94.51
72061;BME280;59925;52.136;5.420;2022-11-04T07:21:03;100660.78;;;7.00;94.45
72061;BME280;59925;52.136;5.420;2022-11-04T07:23:35;100662.94;;;7.03;94.75
72061;BME280;59925;52.136;5.420;2022-11-04T07:26:02;100663.75;;;7.03;94.61
72061;BME280;59925;52.136;5.420;2022-11-04T07:28:29;100666.16;;;7.05;94.57
72061;BME280;59925;52.136;5.420;2022-11-04T07:30:57;100668.59;;;7.07;94.43
72061;BME280;59925;52.136;5.420;2022-11-04T07:33:25;100667.28;;;7.09;94.56
72061;BME280;59925;52.136;5.420;2022-11-04T07:35:53;100672.13;;;7.12;94.51
72061;BME280;59925;52.136;5.420;2022-11-04T07:38:23;100668.94;;;7.15;94.40
72061;BME280;59925;52.136;5.420;2022-11-04T07:40:50;100668.50;;;7.24;94.60
72061;BME280;59925;52.136;5.420;2022-11-04T07:43:16;100678.13;;;7.25;94.74
72061;BME280;59925;52.136;5.420;2022-11-04T07:45:42;100673.84;;;7.24;94.57
72061;BME280;59925;52.136;5.420;2022-11-04T07:48:09;100676.25;;;7.25;94.46
72061;BME280;59925;52.136;5.420;2022-11-04T07:50:39;100677.09;;;7.31;94.50
72061;BME280;59925;52.136;5.420;2022-11-04T07:53:06;100681.44;;;7.37;94.60
72061;BME280;59925;52.136;5.420;2022-11-04T07:55:36;100684.47;;;7.46;94.64
72061;BME280;59925;52.136;5.420;2022-11-04T07:58:08;100687.47;;;7.55;94.72
72061;BME280;59925;52.136;5.420;2022-11-04T08:00:35;100688.56;;;7.59;94.60
72061;BME280;59925;52.136;5.420;2022-11-04T08:03:01;100696.88;;;7.62;94.68
72061;BME280;59925;52.136;5.420;2022-11-04T08:05:28;100698.25;;;7.65;94.54
72061;BME280;59925;52.136;5.420;2022-11-04T08:07:54;100708.94;;;7.65;94.49
72061;BME280;59925;52.136;5.420;2022-11-04T08:10:22;100719.84;;;7.63;94.47
72061;BME280;59925;52.136;5.420;2022-11-04T08:12:50;100718.53;;;7.66;94.30
72061;BME280;59925;52.136;5.420;2022-11-04T08:15:16;100727.44;;;7.77;94.32
72061;BME280;59925;52.136;5.420;2022-11-04T08:17:43;100732.31;;;7.85;94.28
72061;BME280;59925;52.136;5.420;2022-11-04T08:20:09;100725.97;;;7.91;94.64
72061;BME280;59925;52.136;5.420;2022-11-04T08:22:37;100723.00;;;7.88;94.14
72061;BME280;59925;52.136;5.420;2022-11-04T08:25:03;100721.66;;;7.85;94.08
72061;BME280;59925;52.136;5.420;2022-11-04T08:27:31;100729.66;;;7.85;94.05
72061;BME280;59925;52.136;5.420;2022-11-04T08:29:57;100736.06;;;7.84;93.97
72061;BME280;59925;52.136;5.420;2022-11-04T08:32:24;100730.16;;;7.82;94.24
72061;BME280;59925;52.136;5.420;2022-11-04T08:34:50;100740.84;;;7.82;94.02
72061;BME280;59925;52.136;5.420;2022-11-04T08:37:17;100748.00;;;7.81;93.85
72061;BME280;59925;52.136;5.420;2022-11-04T08:39:43;100749.63;;;7.82;94.29
72061;BME280;59925;52.136;5.420;2022-11-04T08:42:09;100756.34;;;7.85;94.18
72061;BME280;59925;52.136;5.420;2022-11-04T08:44:36;100759.13;;;8.01;94.28
72061;BME280;59925;52.136;5.420;2022-11-04T08:47:04;100766.00;;;8.24;94.28
72061;BME280;59925;52.136;5.420;2022-11-04T08:49:36;100769.34;;;8.41;94.26
72061;BME280;59925;52.136;5.420;2022-11-04T08:52:03;100777.38;;;8.79;93.69
72061;BME280;59925;52.136;5.420;2022-11-04T08:54:29;100785.78;;;9.03;93.40
72061;BME280;59925;52.136;5.420;2022-11-04T08:56:55;100788.47;;;9.09;93.33
72061;BME280;59925;52.136;5.420;2022-11-04T08:59:22;100784.47;;;9.11;92.89
72061;BME280;59925;52.136;5.420;2022-11-04T09:01:50;100784.81;;;9.30;92.52
72061;BME280;59925;52.136;5.420;2022-11-04T09:04:17;100780.66;;;9.65;92.11
72061;BME280;59925;52.136;5.420;2022-11-04T09:06:45;100786.88;;;9.97;91.77
72061;BME280;59925;52.136;5.420;2022-11-04T09:09:14;100797.56;;;10.12;91.06
72061;BME280;59925;52.136;5.420;2022-11-04T09:11:42;100783.66;;;10.10;90.51
72061;BME280;59925;52.136;5.420;2022-11-04T09:14:10;100792.78;;;10.40;89.86
72061;BME280;59925;52.136;5.420;2022-11-04T09:16:39;100791.41;;;10.33;89.82
72061;BME280;59925;52.136;5.420;2022-11-04T09:19:06;100792.50;;;10.37;89.53
72061;BME280;59925;52.136;5.420;2022-11-04T09:21:33;100804.59;;;10.50;89.48
72061;BME280;59925;52.136;5.420;2022-11-04T09:23:59;100806.19;;;10.61;89.21
72061;BME280;59925;52.136;5.420;2022-11-04T09:26:25;100813.13;;;10.67;88.50
72061;BME280;59925;52.136;5.420;2022-11-04T09:28:53;100822.81;;;10.48;88.07
72061;BME280;59925;52.136;5.420;2022-11-04T09:31:21;100824.16;;;10.45;88.48
72061;BME280;59925;52.136;5.420;2022-11-04T09:33:48;100834.31;;;10.38;88.35
72061;BME280;59925;52.136;5.420;2022-11-04T09:36:15;100832.72;;;10.42;88.05
72061;BME280;59925;52.136;5.420;2022-11-04T09:38:42;100832.72;;;10.47;88.23
72061;BME280;59925;52.136;5.420;2022-11-04T09:41:36;100833.25;;;10.65;88.47
72061;BME280;59925;52.136;5.420;2022-11-04T09:44:25;100830.47;;;11.06;88.59
72061;BME280;59925;52.136;5.420;2022-11-04T09:47:00;100830.41;;;11.27;87.13
72061;BME280;59925;52.136;5.420;2022-11-04T09:49:32;100827.72;;;11.37;85.89
72061;BME280;59925;52.136;5.420;2022-11-04T09:52:07;100841.66;;;11.34;86.27
72061;BME280;59925;52.136;5.420;2022-11-04T09:54:49;100842.50;;;11.24;85.87
72061;BME280;59925;52.136;5.420;2022-11-04T09:57:18;100848.44;;;11.06;85.68
72061;BME280;59925;52.136;5.420;2022-11-04T09:59:45;100846.03;;;10.99;85.81
72061;BME280;59925;52.136;5.420;2022-11-04T10:02:45;100851.69;;;11.02;86.42
72061;BME280;59925;52.136;5.420;2022-11-04T10:05:35;100856.28;;;10.66;85.75
72061;BME280;59925;52.136;5.420;2022-11-04T10:10:52;100863.81;;;10.48;86.35
72061;BME280;59925;52.136;5.420;2022-11-04T10:24:41;100893.28;;;10.79;87.41
72061;BME280;59925;52.136;5.420;2022-11-04T10:27:15;100893.00;;;10.81;86.92
72061;BME280;59925;52.136;5.420;2022-11-04T10:32:16;100894.59;;;10.92;86.82
72061;BME280;59925;52.136;5.420;2022-11-04T10:35:05;100904.81;;;11.00;86.64
72061;BME280;59925;52.136;5.420;2022-11-04T10:37:35;100901.56;;;11.09;86.58
72061;BME280;59925;52.136;5.420;2022-11-04T10:40:16;100896.19;;;11.24;86.67
72061;BME280;59925;52.136;5.420;2022-11-04T10:42:45;100896.97;;;11.35;86.45
72061;BME280;59925;52.136;5.420;2022-11-04T10:45:12;100900.41;;;11.46;86.87
72061;BME280;59925;52.136;5.420;2022-11-04T10:47:41;100892.56;;;11.60;86.20
72061;BME280;59925;52.136;5.420;2022-11-04T10:50:38;100899.19;;;11.83;86.19
72061;BME280;59925;52.136;5.420;2022-11-04T10:53:10;100893.22;;;11.91;85.54
72061;BME280;59925;52.136;5.420;2022-11-04T10:58:22;100900.25;;;12.37;84.66
72061;BME280;59925;52.136;5.420;2022-11-04T11:00:52;100912.50;;;12.54;84.12
72061;BME280;59925;52.136;5.420;2022-11-04T11:03:31;100919.03;;;12.43;83.32
72061;BME280;59925;52.136;5.420;2022-11-04T11:08:47;100942.84;;;12.15;83.46
72061;BME280;59925;52.136;5.420;2022-11-04T11:11:14;100946.88;;;12.12;83.24
72061;BME280;59925;52.136;5.420;2022-11-04T11:13:43;100945.03;;;12.07;83.25
72061;BME280;59925;52.136;5.420;2022-11-04T11:16:19;100951.94;;;12.19;83.70
72061;BME280;59925;52.136;5.420;2022-11-04T11:19:12;100948.69;;;12.27;82.77
72061;BME280;59925;52.136;5.420;2022-11-04T11:21:44;100947.53;;;12.38;82.84
72061;BME280;59925;52.136;5.420;2022-11-04T11:24:16;100942.84;;;12.60;83.04
72061;BME280;59925;52.136;5.420;2022-11-04T11:26:44;100939.09;;;12.90;83.43
72061;BME280;59925;52.136;5.420;2022-11-04T11:29:20;100932.50;;;13.31;82.91
72061;BME280;59925;52.136;5.420;2022-11-04T11:31:47;100936.75;;;13.86;81.86
72061;BME280;59925;52.136;5.420;2022-11-04T11:34:18;100930.59;;;14.23;79.87
72061;BME280;59925;52.136;5.420;2022-11-04T11:36:47;100929.44;;;14.49;78.22
72061;BME280;59925;52.136;5.420;2022-11-04T11:39:18;100928.56;;;14.53;78.03
72061;BME280;59925;52.136;5.420;2022-11-04T11:42:10;100927.53;;;15.01;77.02
72061;BME280;59925;52.136;5.420;2022-11-04T11:44:48;100937.94;;;14.75;76.50
72061;BME280;59925;52.136;5.420;2022-11-04T11:50:24;100941.72;;;14.74;76.28
72061;BME280;59925;52.136;5.420;2022-11-04T11:53:15;100945.47;;;14.92;75.22
72061;BME280;59925;52.136;5.420;2022-11-04T11:55:58;100955.59;;;14.67;75.29
72061;BME280;59925;52.136;5.420;2022-11-04T11:58:41;100951.38;;;14.61;76.05
72061;BME280;59925;52.136;5.420;2022-11-04T12:01:33;100956.25;;;14.78;75.81
72061;BME280;59925;52.136;5.420;2022-11-04T12:04:02;100950.84;;;14.78;75.14
72061;BME280;59925;52.136;5.420;2022-11-04T12:07:05;100946.81;;;14.56;73.95
72061;BME280;59925;52.136;5.420;2022-11-04T12:10:17;100949.47;;;14.43;74.68
72061;BME280;59925;52.136;5.420;2022-11-04T12:13:15;100955.38;;;14.45;75.19
72061;BME280;59925;52.136;5.420;2022-11-04T12:19:13;100970.63;;;14.35;75.30
72061;BME280;59925;52.136;5.420;2022-11-04T12:21:54;100966.22;;;14.20;74.07
72061;BME280;59925;52.136;5.420;2022-11-04T12:24:29;100969.06;;;14.10;74.18
72061;BME280;59925;52.136;5.420;2022-11-04T12:27:10;100979.28;;;14.13;74.66
72061;BME280;59925;52.136;5.420;2022-11-04T12:30:11;100978.19;;;14.14;74.81
72061;BME280;59925;52.136;5.420;2022-11-04T12:44:39;100986.88;;;13.87;74.74
72061;BME280;59925;52.136;5.420;2022-11-04T12:47:30;100997.78;;;14.01;75.03
72061;BME280;59925;52.136;5.420;2022-11-04T12:50:11;101005.25;;;14.04;74.75
72061;BME280;59925;52.136;5.420;2022-11-04T12:55:26;101005.69;;;13.92;75.08
72061;BME280;59925;52.136;5.420;2022-11-04T12:58:17;101005.75;;;13.87;74.91
72061;BME280;59925;52.136;5.420;2022-11-04T13:00:53;101000.56;;;13.90;75.23
72061;BME280;59925;52.136;5.420;2022-11-04T13:06:22;101007.88;;;13.90;74.26
72061;BME280;59925;52.136;5.420;2022-11-04T13:09:07;101012.81;;;13.83;73.71
72061;BME280;59925;52.136;5.420;2022-11-04T13:11:40;101019.34;;;13.76;74.20
72061;BME280;59925;52.136;5.420;2022-11-04T13:14:24;101023.22;;;13.65;74.11
72061;BME280;59925;52.136;5.420;2022-11-04T13:17:00;101016.00;;;13.60;74.65
72061;BME280;59925;52.136;5.420;2022-11-04T13:19:44;101018.50;;;13.52;74.48
72061;BME280;59925;52.136;5.420;2022-11-04T13:22:19;101029.63;;;13.45;74.52
72061;BME280;59925;52.136;5.420;2022-11-04T13:24:53;101032.09;;;13.41;75.13
72061;BME280;59925;52.136;5.420;2022-11-04T13:27:28;101037.75;;;13.40;74.96
72061;BME280;59925;52.136;5.420;2022-11-04T13:33:12;101044.13;;;13.49;75.68
72061;BME280;59925;52.136;5.420;2022-11-04T13:38:57;101067.50;;;13.19;74.73
72061;BME280;59925;52.136;5.420;2022-11-04T13:44:20;101085.38;;;12.54;73.33
72061;BME280;59925;52.136;5.420;2022-11-04T13:46:52;101098.59;;;12.46;72.81
72061;BME280;59925;52.136;5.420;2022-11-04T13:49:27;101098.41;;;12.32;72.66
72061;BME280;59925;52.136;5.420;2022-11-04T13:52:11;101096.28;;;12.18;72.78
72061;BME280;59925;52.136;5.420;2022-11-04T13:54:42;101096.03;;;12.04;72.58
72061;BME280;59925;52.136;5.420;2022-11-04T13:57:14;101097.13;;;11.93;72.76
72061;BME280;59925;52.136;5.420;2022-11-04T13:59:42;101103.06;;;11.85;72.87
72061;BME280;59925;52.136;5.420;2022-11-04T14:02:49;101104.66;;;11.86;71.97
72061;BME280;59925;52.136;5.420;2022-11-04T14:18:32;101103.06;;;11.79;71.74
72061;BME280;59925;52.136;5.420;2022-11-04T14:23:36;101107.34;;;11.80;72.13
72061;BME280;59925;52.136;5.420;2022-11-04T14:26:08;101108.97;;;11.81;72.03
72061;BME280;59925;52.136;5.420;2022-11-04T14:28:35;101114.59;;;11.90;72.50
72061;BME280;59925;52.136;5.420;2022-11-04T14:31:04;101119.97;;;11.95;72.96
72061;BME280;59925;52.136;5.420;2022-11-04T14:33:57;101129.91;;;11.95;72.56
72061;BME280;59925;52.136;5.420;2022-11-04T14:36:24;101130.72;;;11.95;72.54
72061;BME280;59925;52.136;5.420;2022-11-04T14:41:29;101143.88;;;11.92;72.11
72061;BME280;59925;52.136;5.420;2022-11-04T14:45:02;101144.97;;;11.86;72.08
72061;BME280;59925;52.136;5.420;2022-11-04T14:50:01;101160.03;;;11.76;72.72
72061;BME280;59925;52.136;5.420;2022-11-04T14:52:32;101158.66;;;11.74;72.94
72061;BME280;59925;52.136;5.420;2022-11-04T14:55:16;101154.34;;;11.73;72.91
72061;BME280;59925;52.136;5.420;2022-11-04T15:02:45;101170.75;;;11.61;73.54
72061;BME280;59925;52.136;5.420;2022-11-04T15:05:25;101166.72;;;11.58;73.89
72061;BME280;59925;52.136;5.420;2022-11-04T15:07:53;101175.84;;;11.52;74.12
72061;BME280;59925;52.136;5.420;2022-11-04T15:10:22;101176.66;;;11.47;74.27
72061;BME280;59925;52.136;5.420;2022-11-04T15:12:52;101181.19;;;11.47;74.21
72061;BME280;59925;52.136;5.420;2022-11-04T15:15:38;101198.13;;;11.37;74.50